sensor_id;sensor_type;location;lat;lon;timestamp;P1;durP1;ratioP1;P2;durP2;ratioP2
2944;SDS011;1482;51.398;7.128;2022-12-07T00:00:42;36.83;;;28.73;;
2944;SDS011;1482;51.398;7.128;2022-12-07T00:03:07;31.83;;;27.03;;
2944;SDS011;1482;51.398;7.128;2022-12-07T00:05:33;45.30;;;29.50;;
2944;SDS011;1482;51.398;7.128;2022-12-07T00:07:58;39.80;;;29.00;;
2944;SDS011;1482;51.398;7.128;2022-12-07T00:10:24;41.77;;;30.30;;
2944;SDS011;1482;51.398;7.128;2022-12-07T00:12:49;40.77;;;31.10;;
2944;SDS011;1482;51.398;7.128;2022-12-07T00:15:15;44.73;;;31.37;;
2944;SDS011;1482;51.398;7.128;2022-12-07T00:17:40;47.40;;;30.97;;
2944;SDS011;1482;51.398;7.128;2022-12-07T00:20:06;42.50;;;30.77;;
2944;SDS011;1482;51.398;7.128;2022-12-07T00:22:32;41.87;;;31.20;;
2944;SDS011;1482;51.398;7.128;2022-12-07T00:24:57;48.60;;;34.73;;
2944;SDS011;1482;51.398;7.128;2022-12-07T00:27:23;39.13;;;28.83;;
2944;SDS011;1482;51.398;7.128;2022-12-07T00:29:48;37.57;;;30.00;;
2944;SDS011;1482;51.398;7.128;2022-12-07T00:32:14;42.80;;;31.80;;
2944;SDS011;1482;51.398;7.128;2022-12-07T00:34:40;44.90;;;32.67;;
2944;SDS011;1482;51.398;7.128;2022-12-07T00:37:05;44.33;;;31.40;;
2944;SDS011;1482;51.398;7.128;2022-12-07T00:39:31;39.10;;;28.73;;
2944;SDS011;1482;51.398;7.128;2022-12-07T00:41:56;38.20;;;26.97;;
2944;SDS011;1482;51.398;7.128;2022-12-07T00:44:22;39.37;;;28.73;;
2944;SDS011;1482;51.398;7.128;2022-12-07T00:46:47;45.73;;;29.13;;
2944;SDS011;1482;51.398;7.128;2022-12-07T00:49:13;39.40;;;28.70;;
2944;SDS011;1482;51.398;7.128;2022-12-07T00:51:38;37.70;;;27.87;;
2944;SDS011;1482;51.398;7.128;2022-12-07T00:54:04;39.97;;;28.70;;
2944;SDS011;1482;51.398;7.128;2022-12-07T00:56:30;38.10;;;29.93;;
2944;SDS011;1482;51.398;7.128;2022-12-07T00:58:59;40.63;;;28.47;;
2944;SDS011;1482;51.398;7.128;2022-12-07T01:01:27;37.50;;;27.23;;
2944;SDS011;1482;51.398;7.128;2022-12-07T01:03:55;43.77;;;29.53;;
2944;SDS011;1482;51.398;7.128;2022-12-07T01:06:22;39.90;;;28.83;;
2944;SDS011;1482;51.398;7.128;2022-12-07T01:08:49;51.07;;;32.20;;
2944;SDS011;1482;51.398;7.128;2022-12-07T01:11:16;42.43;;;29.43;;
2944;SDS011;1482;51.398;7.128;2022-12-07T01:13:44;41.50;;;28.77;;
2944;SDS011;1482;51.398;7.128;2022-12-07T01:16:12;39.43;;;28.07;;
2944;SDS011;1482;51.398;7.128;2022-12-07T01:18:39;43.50;;;30.40;;
2944;SDS011;1482;51.398;7.128;2022-12-07T01:21:06;37.70;;;30.73;;
2944;SDS011;1482;51.398;7.128;2022-12-07T01:23:51;36.37;;;28.07;;
2944;SDS011;1482;51.398;7.128;2022-12-07T01:26:19;42.60;;;29.43;;
2944;SDS011;1482;51.398;7.128;2022-12-07T01:28:46;38.60;;;28.17;;
2944;SDS011;1482;51.398;7.128;2022-12-07T01:31:13;42.30;;;29.30;;
2944;SDS011;1482;51.398;7.128;2022-12-07T01:33:40;42.83;;;29.67;;
2944;SDS011;1482;51.398;7.128;2022-12-07T01:36:14;39.73;;;31.63;;
2944;SDS011;1482;51.398;7.128;2022-12-07T01:38:45;56.30;;;32.13;;
2944;SDS011;1482;51.398;7.128;2022-12-07T01:41:12;50.20;;;31.37;;
2944;SDS011;1482;51.398;7.128;2022-12-07T01:44:07;52.47;;;32.83;;
2944;SDS011;1482;51.398;7.128;2022-12-07T01:46:53;61.23;;;35.17;;
2944;SDS011;1482;51.398;7.128;2022-12-07T01:49:34;71.47;;;36.97;;
2944;SDS011;1482;51.398;7.128;2022-12-07T01:52:22;53.27;;;33.43;;
2944;SDS011;1482;51.398;7.128;2022-12-07T01:54:56;70.40;;;36.47;;
2944;SDS011;1482;51.398;7.128;2022-12-07T01:57:26;61.63;;;39.10;;
2944;SDS011;1482;51.398;7.128;2022-12-07T01:59:51;58.17;;;36.63;;
2944;SDS011;1482;51.398;7.128;2022-12-07T02:02:19;50.83;;;32.50;;
2944;SDS011;1482;51.398;7.128;2022-12-07T02:04:48;50.60;;;35.17;;
2944;SDS011;1482;51.398;7.128;2022-12-07T02:07:15;53.60;;;33.47;;
2944;SDS011;1482;51.398;7.128;2022-12-07T02:09:41;62.60;;;36.27;;
2944;SDS011;1482;51.398;7.128;2022-12-07T02:12:07;56.13;;;35.40;;
2944;SDS011;1482;51.398;7.128;2022-12-07T02:14:32;61.03;;;36.13;;
2944;SDS011;1482;51.398;7.128;2022-12-07T02:17:02;75.80;;;40.00;;
2944;SDS011;1482;51.398;7.128;2022-12-07T02:24:58;63.20;;;37.10;;
2944;SDS011;1482;51.398;7.128;2022-12-07T02:27:35;62.07;;;37.27;;
2944;SDS011;1482;51.398;7.128;2022-12-07T02:30:27;56.40;;;34.50;;
2944;SDS011;1482;51.398;7.128;2022-12-07T02:33:00;60.80;;;36.70;;
2944;SDS011;1482;51.398;7.128;2022-12-07T02:35:35;59.53;;;38.20;;
2944;SDS011;1482;51.398;7.128;2022-12-07T02:38:27;51.17;;;33.13;;
2944;SDS011;1482;51.398;7.128;2022-12-07T02:41:09;51.87;;;34.43;;
2944;SDS011;1482;51.398;7.128;2022-12-07T02:43:57;58.57;;;37.93;;
2944;SDS011;1482;51.398;7.128;2022-12-07T02:46:28;56.13;;;35.77;;
2944;SDS011;1482;51.398;7.128;2022-12-07T02:48:57;69.07;;;35.10;;
2944;SDS011;1482;51.398;7.128;2022-12-07T02:51:29;49.60;;;33.83;;
2944;SDS011;1482;51.398;7.128;2022-12-07T02:53:55;61.43;;;38.23;;
2944;SDS011;1482;51.398;7.128;2022-12-07T02:56:56;54.30;;;33.53;;
2944;SDS011;1482;51.398;7.128;2022-12-07T02:59:29;59.93;;;37.40;;
2944;SDS011;1482;51.398;7.128;2022-12-07T03:05:01;46.47;;;31.27;;
2944;SDS011;1482;51.398;7.128;2022-12-07T03:15:43;48.33;;;32.97;;
2944;SDS011;1482;51.398;7.128;2022-12-07T03:18:16;53.57;;;34.17;;
2944;SDS011;1482;51.398;7.128;2022-12-07T03:20:45;54.03;;;31.47;;
2944;SDS011;1482;51.398;7.128;2022-12-07T03:23:12;48.87;;;32.20;;
2944;SDS011;1482;51.398;7.128;2022-12-07T03:25:41;43.53;;;29.67;;
2944;SDS011;1482;51.398;7.128;2022-12-07T03:28:10;46.30;;;30.93;;
2944;SDS011;1482;51.398;7.128;2022-12-07T03:30:44;52.17;;;32.37;;
2944;SDS011;1482;51.398;7.128;2022-12-07T03:33:21;53.90;;;32.33;;
2944;SDS011;1482;51.398;7.128;2022-12-07T03:35:57;44.93;;;29.50;;
2944;SDS011;1482;51.398;7.128;2022-12-07T03:38:35;51.40;;;32.03;;
2944;SDS011;1482;51.398;7.128;2022-12-07T03:43:33;48.77;;;30.33;;
2944;SDS011;1482;51.398;7.128;2022-12-07T03:51:02;46.37;;;29.90;;
2944;SDS011;1482;51.398;7.128;2022-12-07T03:53:39;51.13;;;31.30;;
2944;SDS011;1482;51.398;7.128;2022-12-07T03:56:10;50.33;;;31.27;;
2944;SDS011;1482;51.398;7.128;2022-12-07T03:58:36;51.17;;;32.87;;
2944;SDS011;1482;51.398;7.128;2022-12-07T04:01:04;53.27;;;31.00;;
2944;SDS011;1482;51.398;7.128;2022-12-07T04:03:29;54.67;;;32.47;;
2944;SDS011;1482;51.398;7.128;2022-12-07T04:05:55;52.37;;;33.67;;
2944;SDS011;1482;51.398;7.128;2022-12-07T04:08:21;55.27;;;32.07;;
2944;SDS011;1482;51.398;7.128;2022-12-07T04:10:46;52.27;;;32.27;;
2944;SDS011;1482;51.398;7.128;2022-12-07T04:13:12;59.20;;;33.83;;
2944;SDS011;1482;51.398;7.128;2022-12-07T04:15:37;57.77;;;32.17;;
2944;SDS011;1482;51.398;7.128;2022-12-07T04:18:03;50.87;;;30.20;;
2944;SDS011;1482;51.398;7.128;2022-12-07T04:20:28;51.83;;;32.57;;
2944;SDS011;1482;51.398;7.128;2022-12-07T04:22:54;58.10;;;33.93;;
2944;SDS011;1482;51.398;7.128;2022-12-07T04:25:19;58.23;;;34.17;;
2944;SDS011;1482;51.398;7.128;2022-12-07T04:27:45;70.50;;;34.80;;
2944;SDS011;1482;51.398;7.128;2022-12-07T04:30:10;60.60;;;31.90;;
2944;SDS011;1482;51.398;7.128;2022-12-07T04:32:37;47.17;;;29.23;;
2944;SDS011;1482;51.398;7.128;2022-12-07T04:35:03;52.50;;;29.97;;
2944;SDS011;1482;51.398;7.128;2022-12-07T04:37:29;47.33;;;28.67;;
2944;SDS011;1482;51.398;7.128;2022-12-07T04:39:54;52.77;;;31.70;;
2944;SDS011;1482;51.398;7.128;2022-12-07T04:42:20;46.30;;;29.43;;
2944;SDS011;1482;51.398;7.128;2022-12-07T04:44:45;50.87;;;30.00;;
2944;SDS011;1482;51.398;7.128;2022-12-07T04:47:11;58.73;;;29.20;;
2944;SDS011;1482;51.398;7.128;2022-12-07T04:49:37;45.47;;;29.40;;
2944;SDS011;1482;51.398;7.128;2022-12-07T04:52:02;48.17;;;28.77;;
2944;SDS011;1482;51.398;7.128;2022-12-07T04:54:28;49.83;;;31.20;;
2944;SDS011;1482;51.398;7.128;2022-12-07T04:56:53;61.83;;;31.80;;
2944;SDS011;1482;51.398;7.128;2022-12-07T04:59:19;45.07;;;28.13;;
2944;SDS011;1482;51.398;7.128;2022-12-07T05:01:44;50.10;;;31.57;;
2944;SDS011;1482;51.398;7.128;2022-12-07T05:04:10;43.47;;;28.60;;
2944;SDS011;1482;51.398;7.128;2022-12-07T05:06:35;44.40;;;28.03;;
2944;SDS011;1482;51.398;7.128;2022-12-07T05:09:01;46.70;;;28.90;;
2944;SDS011;1482;51.398;7.128;2022-12-07T05:11:28;49.13;;;28.90;;
2944;SDS011;1482;51.398;7.128;2022-12-07T05:14:03;51.37;;;29.63;;
2944;SDS011;1482;51.398;7.128;2022-12-07T05:16:37;45.57;;;27.90;;
2944;SDS011;1482;51.398;7.128;2022-12-07T05:19:04;43.23;;;28.53;;
2944;SDS011;1482;51.398;7.128;2022-12-07T05:21:30;50.70;;;30.40;;
2944;SDS011;1482;51.398;7.128;2022-12-07T05:23:55;48.20;;;29.20;;
2944;SDS011;1482;51.398;7.128;2022-12-07T05:26:21;46.33;;;30.07;;
2944;SDS011;1482;51.398;7.128;2022-12-07T05:28:49;46.47;;;31.40;;
2944;SDS011;1482;51.398;7.128;2022-12-07T05:31:19;62.03;;;31.20;;
2944;SDS011;1482;51.398;7.128;2022-12-07T05:33:45;61.43;;;32.07;;
2944;SDS011;1482;51.398;7.128;2022-12-07T05:36:10;49.63;;;30.80;;
2944;SDS011;1482;51.398;7.128;2022-12-07T05:38:36;52.43;;;30.43;;
2944;SDS011;1482;51.398;7.128;2022-12-07T05:41:02;50.80;;;29.03;;
2944;SDS011;1482;51.398;7.128;2022-12-07T05:43:28;52.27;;;31.60;;
2944;SDS011;1482;51.398;7.128;2022-12-07T05:45:54;46.47;;;28.93;;
2944;SDS011;1482;51.398;7.128;2022-12-07T05:48:20;50.73;;;30.50;;
2944;SDS011;1482;51.398;7.128;2022-12-07T05:50:49;42.30;;;27.37;;
2944;SDS011;1482;51.398;7.128;2022-12-07T05:53:15;43.13;;;27.67;;
2944;SDS011;1482;51.398;7.128;2022-12-07T05:55:40;53.00;;;29.30;;
2944;SDS011;1482;51.398;7.128;2022-12-07T05:58:06;49.90;;;29.00;;
2944;SDS011;1482;51.398;7.128;2022-12-07T06:00:50;48.30;;;29.73;;
2944;SDS011;1482;51.398;7.128;2022-12-07T06:03:15;47.43;;;28.97;;
2944;SDS011;1482;51.398;7.128;2022-12-07T06:05:41;43.40;;;28.20;;
2944;SDS011;1482;51.398;7.128;2022-12-07T06:08:07;40.80;;;27.10;;
2944;SDS011;1482;51.398;7.128;2022-12-07T06:10:32;48.73;;;27.80;;
2944;SDS011;1482;51.398;7.128;2022-12-07T06:12:58;39.33;;;26.27;;
2944;SDS011;1482;51.398;7.128;2022-12-07T06:15:24;47.50;;;28.93;;
2944;SDS011;1482;51.398;7.128;2022-12-07T06:17:49;44.43;;;26.77;;
2944;SDS011;1482;51.398;7.128;2022-12-07T06:20:14;33.60;;;23.33;;
2944;SDS011;1482;51.398;7.128;2022-12-07T06:22:40;41.13;;;23.20;;
2944;SDS011;1482;51.398;7.128;2022-12-07T06:25:06;34.80;;;22.20;;
2944;SDS011;1482;51.398;7.128;2022-12-07T06:27:32;37.30;;;24.07;;
2944;SDS011;1482;51.398;7.128;2022-12-07T06:29:57;32.60;;;20.67;;
2944;SDS011;1482;51.398;7.128;2022-12-07T06:32:24;41.70;;;22.50;;
2944;SDS011;1482;51.398;7.128;2022-12-07T06:34:49;42.33;;;23.00;;
2944;SDS011;1482;51.398;7.128;2022-12-07T06:37:15;41.50;;;24.67;;
2944;SDS011;1482;51.398;7.128;2022-12-07T06:39:40;38.10;;;20.23;;
2944;SDS011;1482;51.398;7.128;2022-12-07T06:42:06;44.70;;;22.67;;
2944;SDS011;1482;51.398;7.128;2022-12-07T06:44:31;40.00;;;21.90;;
2944;SDS011;1482;51.398;7.128;2022-12-07T06:46:57;43.87;;;26.37;;
2944;SDS011;1482;51.398;7.128;2022-12-07T06:49:23;55.67;;;24.90;;
2944;SDS011;1482;51.398;7.128;2022-12-07T06:51:48;41.50;;;25.83;;
2944;SDS011;1482;51.398;7.128;2022-12-07T06:54:14;37.53;;;25.00;;
2944;SDS011;1482;51.398;7.128;2022-12-07T06:56:42;53.33;;;26.00;;
2944;SDS011;1482;51.398;7.128;2022-12-07T06:59:07;49.40;;;27.20;;
2944;SDS011;1482;51.398;7.128;2022-12-07T07:01:34;45.30;;;26.33;;
2944;SDS011;1482;51.398;7.128;2022-12-07T07:04:01;39.10;;;24.00;;
2944;SDS011;1482;51.398;7.128;2022-12-07T07:06:27;39.43;;;26.50;;
2944;SDS011;1482;51.398;7.128;2022-12-07T07:08:52;47.20;;;26.87;;
2944;SDS011;1482;51.398;7.128;2022-12-07T07:11:18;31.80;;;22.40;;
2944;SDS011;1482;51.398;7.128;2022-12-07T07:13:44;31.90;;;18.47;;
2944;SDS011;1482;51.398;7.128;2022-12-07T07:16:10;40.43;;;22.33;;
2944;SDS011;1482;51.398;7.128;2022-12-07T07:18:35;33.77;;;19.90;;
2944;SDS011;1482;51.398;7.128;2022-12-07T07:21:02;42.77;;;22.80;;
2944;SDS011;1482;51.398;7.128;2022-12-07T07:23:28;33.47;;;22.13;;
2944;SDS011;1482;51.398;7.128;2022-12-07T07:25:53;32.57;;;19.87;;
2944;SDS011;1482;51.398;7.128;2022-12-07T07:28:19;28.70;;;19.63;;
2944;SDS011;1482;51.398;7.128;2022-12-07T07:30:44;33.00;;;19.73;;
2944;SDS011;1482;51.398;7.128;2022-12-07T07:33:10;27.80;;;17.37;;
2944;SDS011;1482;51.398;7.128;2022-12-07T07:35:36;27.10;;;16.83;;
2944;SDS011;1482;51.398;7.128;2022-12-07T07:38:02;33.40;;;17.70;;
2944;SDS011;1482;51.398;7.128;2022-12-07T07:40:28;29.37;;;16.50;;
2944;SDS011;1482;51.398;7.128;2022-12-07T07:42:54;28.60;;;16.67;;
2944;SDS011;1482;51.398;7.128;2022-12-07T07:45:21;27.23;;;17.60;;
2944;SDS011;1482;51.398;7.128;2022-12-07T07:47:48;33.17;;;18.07;;
2944;SDS011;1482;51.398;7.128;2022-12-07T07:50:14;32.00;;;20.10;;
2944;SDS011;1482;51.398;7.128;2022-12-07T07:52:40;45.20;;;21.80;;
2944;SDS011;1482;51.398;7.128;2022-12-07T07:55:06;33.77;;;19.30;;
2944;SDS011;1482;51.398;7.128;2022-12-07T07:57:36;35.87;;;21.60;;
2944;SDS011;1482;51.398;7.128;2022-12-07T08:00:03;35.53;;;22.53;;
2944;SDS011;1482;51.398;7.128;2022-12-07T08:02:30;31.50;;;21.97;;
2944;SDS011;1482;51.398;7.128;2022-12-07T08:04:56;34.40;;;21.90;;
2944;SDS011;1482;51.398;7.128;2022-12-07T08:07:21;30.93;;;20.30;;
2944;SDS011;1482;51.398;7.128;2022-12-07T08:09:47;27.83;;;19.10;;
2944;SDS011;1482;51.398;7.128;2022-12-07T08:12:12;37.77;;;21.87;;
2944;SDS011;1482;51.398;7.128;2022-12-07T08:14:38;26.90;;;18.83;;
2944;SDS011;1482;51.398;7.128;2022-12-07T08:17:04;27.30;;;16.87;;
2944;SDS011;1482;51.398;7.128;2022-12-07T08:19:29;28.10;;;18.10;;
2944;SDS011;1482;51.398;7.128;2022-12-07T08:21:55;31.77;;;19.20;;
2944;SDS011;1482;51.398;7.128;2022-12-07T08:24:21;25.63;;;17.50;;
2944;SDS011;1482;51.398;7.128;2022-12-07T08:26:47;27.53;;;16.50;;
2944;SDS011;1482;51.398;7.128;2022-12-07T08:29:13;26.30;;;18.23;;
2944;SDS011;1482;51.398;7.128;2022-12-07T08:31:38;30.67;;;14.07;;
2944;SDS011;1482;51.398;7.128;2022-12-07T08:34:04;21.47;;;12.27;;
2944;SDS011;1482;51.398;7.128;2022-12-07T08:36:30;13.33;;;11.37;;
2944;SDS011;1482;51.398;7.128;2022-12-07T08:38:55;16.20;;;13.27;;
2944;SDS011;1482;51.398;7.128;2022-12-07T08:41:21;19.80;;;12.70;;
2944;SDS011;1482;51.398;7.128;2022-12-07T08:43:46;17.93;;;12.73;;
2944;SDS011;1482;51.398;7.128;2022-12-07T08:46:18;18.20;;;13.73;;
2944;SDS011;1482;51.398;7.128;2022-12-07T08:48:53;17.00;;;11.13;;
2944;SDS011;1482;51.398;7.128;2022-12-07T08:51:22;16.03;;;10.90;;
2944;SDS011;1482;51.398;7.128;2022-12-07T08:53:49;13.60;;;10.80;;
2944;SDS011;1482;51.398;7.128;2022-12-07T08:56:16;14.37;;;11.03;;
2944;SDS011;1482;51.398;7.128;2022-12-07T08:58:42;13.87;;;10.80;;
2944;SDS011;1482;51.398;7.128;2022-12-07T09:01:08;18.53;;;10.70;;
2944;SDS011;1482;51.398;7.128;2022-12-07T09:03:33;19.30;;;11.50;;
2944;SDS011;1482;51.398;7.128;2022-12-07T09:05:59;17.30;;;10.80;;
2944;SDS011;1482;51.398;7.128;2022-12-07T09:08:26;11.90;;;8.67;;
2944;SDS011;1482;51.398;7.128;2022-12-07T09:10:56;17.90;;;10.93;;
2944;SDS011;1482;51.398;7.128;2022-12-07T09:13:21;17.93;;;9.60;;
2944;SDS011;1482;51.398;7.128;2022-12-07T09:15:47;14.47;;;9.30;;
2944;SDS011;1482;51.398;7.128;2022-12-07T09:18:13;18.67;;;10.87;;
2944;SDS011;1482;51.398;7.128;2022-12-07T09:20:38;10.30;;;9.30;;
2944;SDS011;1482;51.398;7.128;2022-12-07T09:23:05;16.70;;;10.80;;
2944;SDS011;1482;51.398;7.128;2022-12-07T09:25:31;12.37;;;10.17;;
2944;SDS011;1482;51.398;7.128;2022-12-07T09:27:58;11.60;;;9.70;;
2944;SDS011;1482;51.398;7.128;2022-12-07T09:30:23;16.90;;;10.03;;
2944;SDS011;1482;51.398;7.128;2022-12-07T09:32:50;20.20;;;12.83;;
2944;SDS011;1482;51.398;7.128;2022-12-07T09:35:18;12.67;;;11.17;;
2944;SDS011;1482;51.398;7.128;2022-12-07T09:37:44;28.57;;;12.77;;
2944;SDS011;1482;51.398;7.128;2022-12-07T09:40:10;13.80;;;11.20;;
2944;SDS011;1482;51.398;7.128;2022-12-07T09:42:37;17.23;;;12.93;;
2944;SDS011;1482;51.398;7.128;2022-12-07T09:45:13;15.57;;;11.03;;
2944;SDS011;1482;51.398;7.128;2022-12-07T09:47:41;17.20;;;12.67;;
2944;SDS011;1482;51.398;7.128;2022-12-07T09:50:11;15.83;;;11.67;;
2944;SDS011;1482;51.398;7.128;2022-12-07T09:52:43;20.90;;;10.60;;
2944;SDS011;1482;51.398;7.128;2022-12-07T09:55:14;14.60;;;10.90;;
2944;SDS011;1482;51.398;7.128;2022-12-07T09:57:44;22.30;;;11.27;;
2944;SDS011;1482;51.398;7.128;2022-12-07T10:00:14;24.67;;;10.83;;
2944;SDS011;1482;51.398;7.128;2022-12-07T10:02:42;12.73;;;10.37;;
2944;SDS011;1482;51.398;7.128;2022-12-07T10:05:38;15.43;;;9.40;;
2944;SDS011;1482;51.398;7.128;2022-12-07T10:08:03;11.53;;;8.70;;
2944;SDS011;1482;51.398;7.128;2022-12-07T10:10:30;15.03;;;8.60;;
2944;SDS011;1482;51.398;7.128;2022-12-07T10:13:01;21.57;;;9.00;;
2944;SDS011;1482;51.398;7.128;2022-12-07T10:26:50;12.40;;;9.00;;
2944;SDS011;1482;51.398;7.128;2022-12-07T10:29:19;11.37;;;7.60;;
2944;SDS011;1482;51.398;7.128;2022-12-07T10:31:59;10.70;;;8.40;;
2944;SDS011;1482;51.398;7.128;2022-12-07T10:34:37;14.47;;;7.67;;
2944;SDS011;1482;51.398;7.128;2022-12-07T10:39:44;12.70;;;8.27;;
2944;SDS011;1482;51.398;7.128;2022-12-07T10:42:21;15.40;;;8.40;;
2944;SDS011;1482;51.398;7.128;2022-12-07T10:59:26;15.23;;;6.60;;
2944;SDS011;1482;51.398;7.128;2022-12-07T11:02:50;7.07;;;5.30;;
2944;SDS011;1482;51.398;7.128;2022-12-07T11:08:03;10.03;;;6.97;;
2944;SDS011;1482;51.398;7.128;2022-12-07T11:10:54;16.57;;;7.53;;
2944;SDS011;1482;51.398;7.128;2022-12-07T11:13:33;18.03;;;8.40;;
2944;SDS011;1482;51.398;7.128;2022-12-07T11:21:45;11.00;;;6.20;;
2944;SDS011;1482;51.398;7.128;2022-12-07T11:24:24;8.63;;;6.20;;
2944;SDS011;1482;51.398;7.128;2022-12-07T11:26:58;10.70;;;7.90;;
2944;SDS011;1482;51.398;7.128;2022-12-07T11:37:44;9.57;;;7.73;;
2944;SDS011;1482;51.398;7.128;2022-12-07T11:42:46;12.03;;;7.70;;
2944;SDS011;1482;51.398;7.128;2022-12-07T11:45:20;13.10;;;8.10;;
2944;SDS011;1482;51.398;7.128;2022-12-07T11:47:54;10.13;;;7.87;;
2944;SDS011;1482;51.398;7.128;2022-12-07T11:50:40;13.60;;;9.00;;
2944;SDS011;1482;51.398;7.128;2022-12-07T11:53:19;13.90;;;9.57;;
2944;SDS011;1482;51.398;7.128;2022-12-07T12:04:06;10.43;;;7.37;;
2944;SDS011;1482;51.398;7.128;2022-12-07T12:06:38;15.23;;;9.77;;
2944;SDS011;1482;51.398;7.128;2022-12-07T12:09:15;9.97;;;8.00;;
2944;SDS011;1482;51.398;7.128;2022-12-07T12:14:22;8.77;;;7.13;;
2944;SDS011;1482;51.398;7.128;2022-12-07T12:17:07;9.67;;;6.70;;
2944;SDS011;1482;51.398;7.128;2022-12-07T12:19:40;11.60;;;6.70;;
2944;SDS011;1482;51.398;7.128;2022-12-07T12:24:41;14.27;;;6.60;;
2944;SDS011;1482;51.398;7.128;2022-12-07T12:27:15;8.03;;;5.50;;
2944;SDS011;1482;51.398;7.128;2022-12-07T12:29:50;12.43;;;5.60;;
2944;SDS011;1482;51.398;7.128;2022-12-07T12:34:58;9.20;;;6.50;;
2944;SDS011;1482;51.398;7.128;2022-12-07T12:37:48;16.63;;;10.47;;
2944;SDS011;1482;51.398;7.128;2022-12-07T12:42:54;10.80;;;6.03;;
2944;SDS011;1482;51.398;7.128;2022-12-07T12:45:25;15.17;;;6.00;;
2944;SDS011;1482;51.398;7.128;2022-12-07T12:48:01;8.87;;;4.90;;
2944;SDS011;1482;51.398;7.128;2022-12-07T12:50:29;6.10;;;4.33;;
2944;SDS011;1482;51.398;7.128;2022-12-07T12:58:51;14.13;;;5.83;;
2944;SDS011;1482;51.398;7.128;2022-12-07T13:03:56;13.73;;;5.40;;
2944;SDS011;1482;51.398;7.128;2022-12-07T13:08:51;9.17;;;4.63;;
2944;SDS011;1482;51.398;7.128;2022-12-07T13:16:59;8.27;;;4.90;;
2944;SDS011;1482;51.398;7.128;2022-12-07T13:22:31;10.50;;;6.97;;
2944;SDS011;1482;51.398;7.128;2022-12-07T13:24:59;14.70;;;5.47;;
2944;SDS011;1482;51.398;7.128;2022-12-07T13:27:34;14.93;;;7.60;;
2944;SDS011;1482;51.398;7.128;2022-12-07T13:30:07;11.17;;;4.50;;
2944;SDS011;1482;51.398;7.128;2022-12-07T13:32:43;10.27;;;5.00;;
2944;SDS011;1482;51.398;7.128;2022-12-07T13:35:31;10.90;;;5.70;;
2944;SDS011;1482;51.398;7.128;2022-12-07T13:38:02;15.67;;;5.60;;
2944;SDS011;1482;51.398;7.128;2022-12-07T13:40:30;7.93;;;4.83;;
2944;SDS011;1482;51.398;7.128;2022-12-07T13:43:00;11.37;;;6.10;;
2944;SDS011;1482;51.398;7.128;2022-12-07T13:45:29;13.53;;;7.80;;
2944;SDS011;1482;51.398;7.128;2022-12-07T13:48:36;10.73;;;5.77;;
2944;SDS011;1482;51.398;7.128;2022-12-07T13:51:17;11.10;;;6.20;;
2944;SDS011;1482;51.398;7.128;2022-12-07T13:53:54;15.17;;;6.90;;
2944;SDS011;1482;51.398;7.128;2022-12-07T13:56:26;11.50;;;6.83;;
2944;SDS011;1482;51.398;7.128;2022-12-07T13:58:56;9.67;;;6.80;;
2944;SDS011;1482;51.398;7.128;2022-12-07T14:01:22;15.57;;;8.57;;
2944;SDS011;1482;51.398;7.128;2022-12-07T14:03:48;12.93;;;7.97;;
2944;SDS011;1482;51.398;7.128;2022-12-07T14:08:45;11.67;;;5.50;;
2944;SDS011;1482;51.398;7.128;2022-12-07T14:11:16;14.33;;;7.40;;
2944;SDS011;1482;51.398;7.128;2022-12-07T14:13:45;12.73;;;6.40;;
2944;SDS011;1482;51.398;7.128;2022-12-07T14:18:56;11.80;;;6.93;;
2944;SDS011;1482;51.398;7.128;2022-12-07T14:21:24;13.37;;;8.17;;
2944;SDS011;1482;51.398;7.128;2022-12-07T14:24:11;18.73;;;8.77;;
2944;SDS011;1482;51.398;7.128;2022-12-07T14:26:40;24.13;;;9.17;;
2944;SDS011;1482;51.398;7.128;2022-12-07T14:29:39;16.70;;;5.80;;
2944;SDS011;1482;51.398;7.128;2022-12-07T14:32:12;10.60;;;7.10;;
2944;SDS011;1482;51.398;7.128;2022-12-07T14:34:57;12.50;;;5.00;;
2944;SDS011;1482;51.398;7.128;2022-12-07T14:37:27;6.20;;;5.70;;
2944;SDS011;1482;51.398;7.128;2022-12-07T14:39:54;4.70;;;4.00;;
2944;SDS011;1482;51.398;7.128;2022-12-07T14:42:20;4.77;;;4.00;;
2944;SDS011;1482;51.398;7.128;2022-12-07T14:44:48;15.57;;;4.17;;
2944;SDS011;1482;51.398;7.128;2022-12-07T14:47:14;3.97;;;3.63;;
2944;SDS011;1482;51.398;7.128;2022-12-07T14:49:40;6.33;;;4.30;;
2944;SDS011;1482;51.398;7.128;2022-12-07T14:52:05;8.40;;;4.10;;
2944;SDS011;1482;51.398;7.128;2022-12-07T14:54:38;6.83;;;4.13;;
2944;SDS011;1482;51.398;7.128;2022-12-07T14:57:03;6.50;;;4.00;;
2944;SDS011;1482;51.398;7.128;2022-12-07T14:59:29;12.70;;;4.40;;
2944;SDS011;1482;51.398;7.128;2022-12-07T15:01:54;7.47;;;4.20;;
2944;SDS011;1482;51.398;7.128;2022-12-07T15:04:20;11.03;;;4.53;;
2944;SDS011;1482;51.398;7.128;2022-12-07T15:06:54;11.03;;;4.63;;
2944;SDS011;1482;51.398;7.128;2022-12-07T15:09:24;7.47;;;4.37;;
2944;SDS011;1482;51.398;7.128;2022-12-07T15:11:50;7.90;;;5.30;;
2944;SDS011;1482;51.398;7.128;2022-12-07T15:14:15;9.10;;;5.67;;
2944;SDS011;1482;51.398;7.128;2022-12-07T15:16:41;9.97;;;5.77;;
2944;SDS011;1482;51.398;7.128;2022-12-07T15:19:21;17.77;;;8.80;;
2944;SDS011;1482;51.398;7.128;2022-12-07T15:21:50;16.27;;;10.43;;
2944;SDS011;1482;51.398;7.128;2022-12-07T15:24:16;11.20;;;6.90;;
2944;SDS011;1482;51.398;7.128;2022-12-07T15:26:41;7.60;;;6.17;;
2944;SDS011;1482;51.398;7.128;2022-12-07T15:29:07;8.00;;;4.80;;
2944;SDS011;1482;51.398;7.128;2022-12-07T15:31:33;9.37;;;5.97;;
2944;SDS011;1482;51.398;7.128;2022-12-07T15:33:59;15.23;;;6.00;;
2944;SDS011;1482;51.398;7.128;2022-12-07T15:36:25;6.10;;;5.53;;
2944;SDS011;1482;51.398;7.128;2022-12-07T15:38:53;19.93;;;6.07;;
2944;SDS011;1482;51.398;7.128;2022-12-07T15:41:19;13.10;;;5.10;;
2944;SDS011;1482;51.398;7.128;2022-12-07T15:43:45;5.77;;;4.83;;
2944;SDS011;1482;51.398;7.128;2022-12-07T15:46:33;7.50;;;5.30;;
2944;SDS011;1482;51.398;7.128;2022-12-07T15:49:04;10.10;;;4.73;;
2944;SDS011;1482;51.398;7.128;2022-12-07T15:51:38;6.80;;;5.60;;
2944;SDS011;1482;51.398;7.128;2022-12-07T15:54:03;10.90;;;5.97;;
2944;SDS011;1482;51.398;7.128;2022-12-07T15:56:29;9.80;;;6.10;;
2944;SDS011;1482;51.398;7.128;2022-12-07T15:58:55;13.03;;;6.30;;
2944;SDS011;1482;51.398;7.128;2022-12-07T16:01:21;9.77;;;6.00;;
2944;SDS011;1482;51.398;7.128;2022-12-07T16:03:47;8.77;;;6.27;;
2944;SDS011;1482;51.398;7.128;2022-12-07T16:06:15;11.60;;;6.43;;
2944;SDS011;1482;51.398;7.128;2022-12-07T16:08:43;10.07;;;6.87;;
2944;SDS011;1482;51.398;7.128;2022-12-07T16:11:12;17.23;;;7.97;;
2944;SDS011;1482;51.398;7.128;2022-12-07T16:13:38;10.43;;;5.77;;
2944;SDS011;1482;51.398;7.128;2022-12-07T16:16:05;13.07;;;6.30;;
2944;SDS011;1482;51.398;7.128;2022-12-07T16:18:32;8.57;;;5.43;;
2944;SDS011;1482;51.398;7.128;2022-12-07T16:20:58;11.90;;;5.63;;
2944;SDS011;1482;51.398;7.128;2022-12-07T16:23:24;15.90;;;5.47;;
2944;SDS011;1482;51.398;7.128;2022-12-07T16:25:49;8.77;;;5.80;;
2944;SDS011;1482;51.398;7.128;2022-12-07T16:28:15;8.63;;;5.40;;
2944;SDS011;1482;51.398;7.128;2022-12-07T16:30:40;10.77;;;4.97;;
2944;SDS011;1482;51.398;7.128;2022-12-07T16:33:06;12.87;;;5.57;;
2944;SDS011;1482;51.398;7.128;2022-12-07T16:35:31;6.93;;;5.23;;
2944;SDS011;1482;51.398;7.128;2022-12-07T16:37:57;12.13;;;4.43;;
2944;SDS011;1482;51.398;7.128;2022-12-07T16:40:23;6.47;;;5.20;;
2944;SDS011;1482;51.398;7.128;2022-12-07T16:42:48;7.10;;;4.80;;
2944;SDS011;1482;51.398;7.128;2022-12-07T16:45:14;8.83;;;5.80;;
2944;SDS011;1482;51.398;7.128;2022-12-07T16:47:39;26.30;;;6.60;;
2944;SDS011;1482;51.398;7.128;2022-12-07T16:50:05;21.60;;;8.53;;
2944;SDS011;1482;51.398;7.128;2022-12-07T16:52:32;22.40;;;9.10;;
2944;SDS011;1482;51.398;7.128;2022-12-07T16:54:58;22.97;;;7.20;;
2944;SDS011;1482;51.398;7.128;2022-12-07T16:57:24;19.70;;;9.80;;
2944;SDS011;1482;51.398;7.128;2022-12-07T16:59:50;21.70;;;8.20;;
2944;SDS011;1482;51.398;7.128;2022-12-07T17:02:16;22.10;;;9.03;;